NCAR-RAP Real-Time Weather Data

Output produced by METARs form (10 April 2020  06:49 UTC)
found at http://weather.rap.ucar.edu/surface/
 
KSHV 100556Z 00000KT 10SM FEW120 BKN200 18/13 A2996 RMK AO2 SLP143 60000 T01830133 10211 20178 402670178 51006 $
KSHV 100456Z 00000KT 10SM BKN180 BKN260 18/13 A2996 RMK AO2 SLP143 T01830128 $
KSHV 100356Z 06006KT 10SM FEW060 BKN180 BKN260 18/13 A2995 RMK AO2 SLP139 T01830128 $
KSHV 100256Z 12003KT 10SM BKN055 OVC180 20/12 A2995 RMK AO2 RAE0158 SLP137 P0000 60000 T02000117 51032 $
KSHV 100156Z 08005KT 10SM -RA SCT055 BKN120 OVC180 19/12 A2991 RMK AO2 RAB33 SLP124 P0000 T01940117 $
KSHV 100056Z 03007KT 10SM FEW070 BKN130 OVC180 21/10 A2990 RMK AO2 LTG DSNT SE AND S SLP120 OCNL LTGIC DSNT SE-S VIRGA ALQDS T02110100 $
KSHV 092356Z 05010KT 10SM FEW070 BKN120 OVC180 21/11 A2985 RMK AO2 SLP105 VIRGA SE-SW-W T02110106 10267 20211 55001 $
KSHV 092256Z 02009KT 10SM FEW042 BKN140 OVC200 22/13 A2983 RMK AO2 SLP099 VIRGA OHD-S T02220128 $
KSHV 092156Z 02011KT 10SM BKN042 OVC200 23/13 A2984 RMK AO2 SLP102 T02330133 $
KSHV 092056Z 06010KT 10SM SCT040 SCT130 OVC270 25/14 A2985 RMK AO2 SLP106 T02500139 58016 $
KSHV 091956Z 08008KT 10SM SCT045 SCT130 BKN270 26/14 A2987 RMK AO2 SLP110 T02560144
KSHV 091856Z 06007KT 10SM FEW045 SCT130 BKN200 24/15 A2990 RMK AO2 SLP120 T02440150
KSHV 091756Z 06009KT 10SM FEW045 SCT130 BKN270 26/16 A2990 RMK AO2 SLP121 T02610161 10261 20228 58001
KSHV 091656Z 05010KT 10SM FEW037 SCT150 BKN280 26/16 A2992 RMK AO2 SLP129 T02610156 $
KSHV 091556Z 05012G21KT 10SM SCT021 SCT038 BKN160 25/17 A2992 RMK AO2 SLP127 T02500167
KSHV 091456Z 07013KT 10SM FEW022 SCT036 SCT160 24/19 A2990 RMK AO2 SLP123 T02440194 53019
KSHV 091356Z 08012KT 8SM FEW027 SCT041 SCT159 24/20 A2988 RMK AO2 SLP115 T02390200
KSHV 091256Z 03009KT 7SM FEW019 SCT028 SCT150 23/21 A2987 RMK AO2 SLP111 T02330211 $
KSHV 091227Z 36006KT 3SM BR FEW019 SCT028 23/22 A2986 RMK AO2 T02280217 $
KSHV 091211Z 34006KT 2 1/2SM MIFG FEW019 SCT028 23/22 A2986 RMK AO2 MIFG SE-S-SW T02280222 $
KSHV 091156Z 33005KT 3SM MIFG FEW018 SCT028 23/22 A2985 RMK AO2 SLP104 MIFG E-SE-S-SW-W T02280217 10244 20222 53013
KSHV 091138Z 32004KT 3SM BR FEW019 SCT028 23/22 A2984 RMK AO2 T02280222 $
KSHV 091056Z 23003KT 3SM BR FEW014 BKN024 23/22 A2982 RMK AO2 SLP096 T02280222 $
KSHV 091008Z 32004KT 4SM BR OVC010 23/23 A2981 RMK AO2 T02330228 $
KSHV 090956Z 34003KT 4SM BR BKN008 BKN250 24/23 A2981 RMK AO2 CIG 007V012 SLP091 T02390228 $
KSHV 090938Z 34006KT 3SM BR FEW007 BKN250 23/22 A2981 RMK AO2 T02330222 $
KSHV 090936Z 34010KT 3SM BR BKN250 23/22 A2981 RMK AO2 PRESRR T02280222 $
KSHV 090927Z 30003KT 2 1/2SM BR BKN250 23/22 A2980 RMK AO2 T02280222 $
KSHV 090856Z 22005KT 4SM BR OVC250 23/23 A2979 RMK AO2 SLP083 T02330228 55007 $
KSHV 090756Z 23007KT 4SM BR OVC250 24/23 A2978 RMK AO2 SLP082 T02390228 $